sensor_id;sensor_type;location;lat;lon;timestamp;P1;durP1;ratioP1;P2;durP2;ratioP2
74922;SDS011;64715;44.760;37.678;2022-12-16T00:00:31;9.98;;;3.40;;
74922;SDS011;64715;44.760;37.678;2022-12-16T00:01:33;10.90;;;3.60;;
74922;SDS011;64715;44.760;37.678;2022-12-16T00:02:34;12.80;;;3.93;;
74922;SDS011;64715;44.760;37.678;2022-12-16T00:03:37;11.43;;;4.25;;
74922;SDS011;64715;44.760;37.678;2022-12-16T00:04:39;11.30;;;3.80;;
74922;SDS011;64715;44.760;37.678;2022-12-16T00:05:40;12.30;;;4.18;;
74922;SDS011;64715;44.760;37.678;2022-12-16T00:06:42;12.65;;;4.03;;
74922;SDS011;64715;44.760;37.678;2022-12-16T00:07:43;12.43;;;4.22;;
74922;SDS011;64715;44.760;37.678;2022-12-16T00:08:44;10.95;;;3.85;;
74922;SDS011;64715;44.760;37.678;2022-12-16T00:09:45;10.55;;;3.45;;
74922;SDS011;64715;44.760;37.678;2022-12-16T00:10:46;10.13;;;3.50;;
74922;SDS011;64715;44.760;37.678;2022-12-16T00:11:52;12.90;;;4.07;;
74922;SDS011;64715;44.760;37.678;2022-12-16T00:12:54;9.45;;;3.15;;
74922;SDS011;64715;44.760;37.678;2022-12-16T00:13:55;12.77;;;3.45;;
74922;SDS011;64715;44.760;37.678;2022-12-16T00:14:56;10.57;;;3.33;;
74922;SDS011;64715;44.760;37.678;2022-12-16T00:15:57;11.93;;;4.10;;
74922;SDS011;64715;44.760;37.678;2022-12-16T00:16:58;11.32;;;3.78;;
74922;SDS011;64715;44.760;37.678;2022-12-16T00:18:00;9.80;;;3.60;;
74922;SDS011;64715;44.760;37.678;2022-12-16T00:19:01;11.93;;;4.37;;
74922;SDS011;64715;44.760;37.678;2022-12-16T00:20:02;11.70;;;4.30;;
74922;SDS011;64715;44.760;37.678;2022-12-16T00:21:03;12.52;;;3.78;;
74922;SDS011;64715;44.760;37.678;2022-12-16T00:22:05;11.50;;;4.20;;
74922;SDS011;64715;44.760;37.678;2022-12-16T00:23:06;10.75;;;3.70;;
74922;SDS011;64715;44.760;37.678;2022-12-16T00:24:07;10.00;;;3.60;;
74922;SDS011;64715;44.760;37.678;2022-12-16T00:25:08;11.18;;;3.67;;
74922;SDS011;64715;44.760;37.678;2022-12-16T00:26:09;12.23;;;4.25;;
74922;SDS011;64715;44.760;37.678;2022-12-16T00:27:11;11.40;;;4.30;;
74922;SDS011;64715;44.760;37.678;2022-12-16T00:28:13;11.30;;;3.60;;
74922;SDS011;64715;44.760;37.678;2022-12-16T00:29:15;9.65;;;3.70;;
74922;SDS011;64715;44.760;37.678;2022-12-16T00:30:16;13.68;;;4.22;;
74922;SDS011;64715;44.760;37.678;2022-12-16T00:31:17;12.15;;;4.03;;
74922;SDS011;64715;44.760;37.678;2022-12-16T00:32:18;12.85;;;4.55;;
74922;SDS011;64715;44.760;37.678;2022-12-16T00:33:20;12.45;;;4.25;;
74922;SDS011;64715;44.760;37.678;2022-12-16T00:34:23;11.53;;;4.03;;
74922;SDS011;64715;44.760;37.678;2022-12-16T00:35:24;12.20;;;4.07;;
74922;SDS011;64715;44.760;37.678;2022-12-16T00:36:25;12.85;;;4.40;;
74922;SDS011;64715;44.760;37.678;2022-12-16T00:37:26;10.27;;;3.75;;
74922;SDS011;64715;44.760;37.678;2022-12-16T00:38:27;11.20;;;4.22;;
74922;SDS011;64715;44.760;37.678;2022-12-16T00:39:28;10.48;;;4.40;;
74922;SDS011;64715;44.760;37.678;2022-12-16T00:40:29;11.73;;;3.95;;
74922;SDS011;64715;44.760;37.678;2022-12-16T00:41:30;12.30;;;3.90;;
74922;SDS011;64715;44.760;37.678;2022-12-16T00:42:31;11.83;;;3.63;;
74922;SDS011;64715;44.760;37.678;2022-12-16T00:43:33;12.13;;;4.18;;
74922;SDS011;64715;44.760;37.678;2022-12-16T00:44:34;11.05;;;3.80;;
74922;SDS011;64715;44.760;37.678;2022-12-16T00:45:35;12.43;;;4.07;;
74922;SDS011;64715;44.760;37.678;2022-12-16T00:46:38;12.18;;;4.40;;
74922;SDS011;64715;44.760;37.678;2022-12-16T00:47:39;13.57;;;4.35;;
74922;SDS011;64715;44.760;37.678;2022-12-16T00:48:40;11.63;;;4.30;;
74922;SDS011;64715;44.760;37.678;2022-12-16T00:49:41;11.80;;;4.47;;
74922;SDS011;64715;44.760;37.678;2022-12-16T00:50:50;14.43;;;4.35;;
74922;SDS011;64715;44.760;37.678;2022-12-16T00:51:53;14.90;;;4.70;;
74922;SDS011;64715;44.760;37.678;2022-12-16T00:52:54;14.23;;;4.70;;
74922;SDS011;64715;44.760;37.678;2022-12-16T00:53:55;13.88;;;4.50;;
74922;SDS011;64715;44.760;37.678;2022-12-16T00:54:56;12.55;;;4.50;;
74922;SDS011;64715;44.760;37.678;2022-12-16T00:56:07;13.52;;;4.65;;
74922;SDS011;64715;44.760;37.678;2022-12-16T00:57:09;15.47;;;4.73;;
74922;SDS011;64715;44.760;37.678;2022-12-16T00:58:10;12.57;;;4.27;;
74922;SDS011;64715;44.760;37.678;2022-12-16T00:59:12;12.75;;;4.80;;
74922;SDS011;64715;44.760;37.678;2022-12-16T01:00:14;16.23;;;4.88;;
74922;SDS011;64715;44.760;37.678;2022-12-16T01:01:16;12.32;;;4.32;;
74922;SDS011;64715;44.760;37.678;2022-12-16T01:02:17;14.90;;;4.70;;
74922;SDS011;64715;44.760;37.678;2022-12-16T01:03:18;15.35;;;4.95;;
74922;SDS011;64715;44.760;37.678;2022-12-16T01:04:19;13.93;;;4.60;;
74922;SDS011;64715;44.760;37.678;2022-12-16T01:05:21;12.70;;;4.67;;
74922;SDS011;64715;44.760;37.678;2022-12-16T01:06:26;13.63;;;4.80;;
74922;SDS011;64715;44.760;37.678;2022-12-16T01:07:27;15.20;;;4.72;;
74922;SDS011;64715;44.760;37.678;2022-12-16T01:08:28;14.82;;;4.78;;
74922;SDS011;64715;44.760;37.678;2022-12-16T01:09:29;15.02;;;4.78;;
74922;SDS011;64715;44.760;37.678;2022-12-16T01:10:30;15.98;;;4.68;;
74922;SDS011;64715;44.760;37.678;2022-12-16T01:11:31;17.48;;;4.90;;
74922;SDS011;64715;44.760;37.678;2022-12-16T01:12:32;15.10;;;4.60;;
74922;SDS011;64715;44.760;37.678;2022-12-16T01:13:34;14.27;;;5.17;;
74922;SDS011;64715;44.760;37.678;2022-12-16T01:14:35;15.60;;;5.30;;
74922;SDS011;64715;44.760;37.678;2022-12-16T01:15:36;16.15;;;5.13;;
74922;SDS011;64715;44.760;37.678;2022-12-16T01:16:37;14.10;;;5.43;;
74922;SDS011;64715;44.760;37.678;2022-12-16T01:17:39;15.15;;;5.43;;
74922;SDS011;64715;44.760;37.678;2022-12-16T01:18:40;17.02;;;5.15;;
74922;SDS011;64715;44.760;37.678;2022-12-16T01:19:41;17.45;;;5.28;;
74922;SDS011;64715;44.760;37.678;2022-12-16T01:20:44;14.37;;;4.60;;
74922;SDS011;64715;44.760;37.678;2022-12-16T01:21:44;18.83;;;5.73;;
74922;SDS011;64715;44.760;37.678;2022-12-16T01:22:45;14.52;;;5.50;;
74922;SDS011;64715;44.760;37.678;2022-12-16T01:23:47;17.05;;;5.53;;
74922;SDS011;64715;44.760;37.678;2022-12-16T01:24:48;19.90;;;5.60;;
74922;SDS011;64715;44.760;37.678;2022-12-16T01:25:50;15.32;;;5.13;;
74922;SDS011;64715;44.760;37.678;2022-12-16T01:26:53;16.50;;;5.38;;
74922;SDS011;64715;44.760;37.678;2022-12-16T01:27:54;16.63;;;5.20;;
74922;SDS011;64715;44.760;37.678;2022-12-16T01:28:56;17.13;;;5.80;;
74922;SDS011;64715;44.760;37.678;2022-12-16T01:29:57;17.15;;;5.65;;
74922;SDS011;64715;44.760;37.678;2022-12-16T01:30:59;17.45;;;5.75;;
74922;SDS011;64715;44.760;37.678;2022-12-16T01:32:03;14.55;;;5.18;;
74922;SDS011;64715;44.760;37.678;2022-12-16T01:33:05;15.75;;;5.47;;
74922;SDS011;64715;44.760;37.678;2022-12-16T01:34:07;19.95;;;6.10;;
74922;SDS011;64715;44.760;37.678;2022-12-16T01:35:08;16.17;;;5.13;;
74922;SDS011;64715;44.760;37.678;2022-12-16T01:36:10;16.95;;;5.57;;
74922;SDS011;64715;44.760;37.678;2022-12-16T01:37:11;22.30;;;5.53;;
74922;SDS011;64715;44.760;37.678;2022-12-16T01:38:12;18.65;;;5.82;;
74922;SDS011;64715;44.760;37.678;2022-12-16T01:39:14;16.35;;;5.93;;
74922;SDS011;64715;44.760;37.678;2022-12-16T01:40:18;18.52;;;5.90;;
74922;SDS011;64715;44.760;37.678;2022-12-16T01:41:22;16.98;;;5.70;;
74922;SDS011;64715;44.760;37.678;2022-12-16T01:42:23;18.67;;;5.57;;
74922;SDS011;64715;44.760;37.678;2022-12-16T01:43:31;16.08;;;5.65;;
74922;SDS011;64715;44.760;37.678;2022-12-16T01:44:35;17.50;;;5.80;;
74922;SDS011;64715;44.760;37.678;2022-12-16T01:45:36;16.83;;;5.55;;
74922;SDS011;64715;44.760;37.678;2022-12-16T01:46:37;17.17;;;5.83;;
74922;SDS011;64715;44.760;37.678;2022-12-16T01:47:38;16.77;;;6.07;;
74922;SDS011;64715;44.760;37.678;2022-12-16T01:49:46;17.83;;;5.97;;
74922;SDS011;64715;44.760;37.678;2022-12-16T01:50:53;17.45;;;5.72;;
74922;SDS011;64715;44.760;37.678;2022-12-16T01:52:01;17.65;;;5.82;;
74922;SDS011;64715;44.760;37.678;2022-12-16T01:53:03;18.67;;;5.88;;
74922;SDS011;64715;44.760;37.678;2022-12-16T01:55:30;17.48;;;5.65;;
74922;SDS011;64715;44.760;37.678;2022-12-16T01:56:39;16.83;;;5.55;;
74922;SDS011;64715;44.760;37.678;2022-12-16T01:57:47;18.73;;;5.33;;
74922;SDS011;64715;44.760;37.678;2022-12-16T01:58:51;18.70;;;5.63;;
74922;SDS011;64715;44.760;37.678;2022-12-16T01:59:52;17.88;;;5.38;;
74922;SDS011;64715;44.760;37.678;2022-12-16T02:00:55;18.08;;;5.75;;
74922;SDS011;64715;44.760;37.678;2022-12-16T02:01:57;15.93;;;5.22;;
74922;SDS011;64715;44.760;37.678;2022-12-16T02:02:58;16.80;;;5.65;;
74922;SDS011;64715;44.760;37.678;2022-12-16T02:04:00;16.42;;;5.30;;
74922;SDS011;64715;44.760;37.678;2022-12-16T02:05:02;17.02;;;5.20;;
74922;SDS011;64715;44.760;37.678;2022-12-16T02:06:22;18.45;;;5.20;;
74922;SDS011;64715;44.760;37.678;2022-12-16T02:07:23;20.38;;;6.07;;
74922;SDS011;64715;44.760;37.678;2022-12-16T02:08:25;17.53;;;5.37;;
74922;SDS011;64715;44.760;37.678;2022-12-16T02:09:26;18.77;;;5.40;;
74922;SDS011;64715;44.760;37.678;2022-12-16T02:10:51;20.27;;;5.90;;
74922;SDS011;64715;44.760;37.678;2022-12-16T02:12:24;16.50;;;5.50;;
74922;SDS011;64715;44.760;37.678;2022-12-16T02:19:19;16.70;;;5.40;;
74922;SDS011;64715;44.760;37.678;2022-12-16T02:20:38;22.40;;;5.83;;
74922;SDS011;64715;44.760;37.678;2022-12-16T02:26:32;20.13;;;5.78;;
74922;SDS011;64715;44.760;37.678;2022-12-16T02:30:29;21.83;;;6.07;;
74922;SDS011;64715;44.760;37.678;2022-12-16T02:32:04;18.88;;;5.90;;
74922;SDS011;64715;44.760;37.678;2022-12-16T02:33:28;19.92;;;5.88;;
74922;SDS011;64715;44.760;37.678;2022-12-16T02:35:01;20.33;;;5.77;;
74922;SDS011;64715;44.760;37.678;2022-12-16T02:36:25;22.27;;;7.33;;
74922;SDS011;64715;44.760;37.678;2022-12-16T02:40:00;17.67;;;6.18;;
74922;SDS011;64715;44.760;37.678;2022-12-16T02:41:10;18.92;;;6.07;;
74922;SDS011;64715;44.760;37.678;2022-12-16T02:43:03;174.65;;;9.93;;
74922;SDS011;64715;44.760;37.678;2022-12-16T02:45:02;57.13;;;6.78;;
74922;SDS011;64715;44.760;37.678;2022-12-16T02:46:17;18.73;;;5.43;;
74922;SDS011;64715;44.760;37.678;2022-12-16T02:47:21;16.73;;;4.80;;
74922;SDS011;64715;44.760;37.678;2022-12-16T02:48:23;19.83;;;5.30;;
74922;SDS011;64715;44.760;37.678;2022-12-16T02:50:27;21.02;;;6.82;;
74922;SDS011;64715;44.760;37.678;2022-12-16T02:51:35;23.55;;;6.55;;
74922;SDS011;64715;44.760;37.678;2022-12-16T02:52:37;19.77;;;6.07;;
74922;SDS011;64715;44.760;37.678;2022-12-16T02:53:39;21.48;;;6.75;;
74922;SDS011;64715;44.760;37.678;2022-12-16T02:54:42;24.40;;;7.32;;
74922;SDS011;64715;44.760;37.678;2022-12-16T02:59:17;19.60;;;6.13;;
74922;SDS011;64715;44.760;37.678;2022-12-16T03:00:20;18.88;;;5.35;;
74922;SDS011;64715;44.760;37.678;2022-12-16T03:02:38;18.92;;;6.20;;
74922;SDS011;64715;44.760;37.678;2022-12-16T03:05:24;18.95;;;6.30;;
74922;SDS011;64715;44.760;37.678;2022-12-16T03:06:48;21.00;;;5.82;;
74922;SDS011;64715;44.760;37.678;2022-12-16T03:07:51;21.80;;;5.95;;
74922;SDS011;64715;44.760;37.678;2022-12-16T03:08:55;20.20;;;5.80;;
74922;SDS011;64715;44.760;37.678;2022-12-16T03:09:59;20.20;;;5.77;;
74922;SDS011;64715;44.760;37.678;2022-12-16T03:11:02;18.80;;;5.60;;
74922;SDS011;64715;44.760;37.678;2022-12-16T03:12:07;18.52;;;5.97;;
74922;SDS011;64715;44.760;37.678;2022-12-16T03:13:12;18.85;;;5.85;;
74922;SDS011;64715;44.760;37.678;2022-12-16T03:14:17;15.77;;;5.60;;
74922;SDS011;64715;44.760;37.678;2022-12-16T03:15:20;17.67;;;6.57;;
74922;SDS011;64715;44.760;37.678;2022-12-16T03:16:26;19.13;;;6.10;;
74922;SDS011;64715;44.760;37.678;2022-12-16T03:17:29;15.93;;;5.75;;
74922;SDS011;64715;44.760;37.678;2022-12-16T03:18:32;19.83;;;6.20;;
74922;SDS011;64715;44.760;37.678;2022-12-16T03:19:35;21.75;;;5.40;;
74922;SDS011;64715;44.760;37.678;2022-12-16T03:21:53;15.77;;;5.70;;
74922;SDS011;64715;44.760;37.678;2022-12-16T03:23:01;19.92;;;6.00;;
74922;SDS011;64715;44.760;37.678;2022-12-16T03:24:06;17.42;;;5.43;;
74922;SDS011;64715;44.760;37.678;2022-12-16T03:25:10;15.90;;;5.30;;
74922;SDS011;64715;44.760;37.678;2022-12-16T03:26:15;18.17;;;6.43;;
74922;SDS011;64715;44.760;37.678;2022-12-16T03:27:45;19.60;;;7.00;;
74922;SDS011;64715;44.760;37.678;2022-12-16T03:29:02;16.42;;;6.30;;
74922;SDS011;64715;44.760;37.678;2022-12-16T03:30:16;17.77;;;6.50;;
74922;SDS011;64715;44.760;37.678;2022-12-16T03:32:36;20.33;;;5.63;;
74922;SDS011;64715;44.760;37.678;2022-12-16T03:33:40;19.23;;;6.10;;
74922;SDS011;64715;44.760;37.678;2022-12-16T03:34:49;18.63;;;6.18;;
74922;SDS011;64715;44.760;37.678;2022-12-16T03:36:05;18.45;;;5.85;;
74922;SDS011;64715;44.760;37.678;2022-12-16T03:37:16;19.20;;;5.45;;
74922;SDS011;64715;44.760;37.678;2022-12-16T03:38:21;20.45;;;6.13;;
74922;SDS011;64715;44.760;37.678;2022-12-16T03:39:23;18.38;;;6.10;;
74922;SDS011;64715;44.760;37.678;2022-12-16T03:40:26;17.90;;;6.10;;
74922;SDS011;64715;44.760;37.678;2022-12-16T03:41:28;18.33;;;5.85;;
74922;SDS011;64715;44.760;37.678;2022-12-16T03:42:31;17.83;;;5.95;;
74922;SDS011;64715;44.760;37.678;2022-12-16T03:43:34;19.83;;;6.50;;
74922;SDS011;64715;44.760;37.678;2022-12-16T03:44:37;22.80;;;6.25;;
74922;SDS011;64715;44.760;37.678;2022-12-16T03:45:39;18.02;;;6.53;;
74922;SDS011;64715;44.760;37.678;2022-12-16T03:46:42;20.20;;;6.57;;
74922;SDS011;64715;44.760;37.678;2022-12-16T03:47:48;21.38;;;6.72;;
74922;SDS011;64715;44.760;37.678;2022-12-16T03:48:50;18.83;;;5.57;;
74922;SDS011;64715;44.760;37.678;2022-12-16T03:49:52;23.00;;;6.57;;
74922;SDS011;64715;44.760;37.678;2022-12-16T03:50:53;21.65;;;6.97;;
74922;SDS011;64715;44.760;37.678;2022-12-16T03:51:54;19.83;;;6.38;;
74922;SDS011;64715;44.760;37.678;2022-12-16T03:52:55;17.20;;;5.43;;
74922;SDS011;64715;44.760;37.678;2022-12-16T03:53:57;21.48;;;6.10;;
74922;SDS011;64715;44.760;37.678;2022-12-16T03:54:58;19.15;;;6.15;;
74922;SDS011;64715;44.760;37.678;2022-12-16T03:55:59;21.48;;;6.53;;
74922;SDS011;64715;44.760;37.678;2022-12-16T03:57:00;22.67;;;7.15;;
74922;SDS011;64715;44.760;37.678;2022-12-16T03:58:01;23.70;;;7.13;;
74922;SDS011;64715;44.760;37.678;2022-12-16T03:59:02;22.05;;;7.10;;
74922;SDS011;64715;44.760;37.678;2022-12-16T04:00:04;23.50;;;7.15;;
74922;SDS011;64715;44.760;37.678;2022-12-16T04:01:12;22.33;;;6.63;;
74922;SDS011;64715;44.760;37.678;2022-12-16T04:02:14;20.23;;;5.70;;
74922;SDS011;64715;44.760;37.678;2022-12-16T04:03:15;21.13;;;6.47;;
74922;SDS011;64715;44.760;37.678;2022-12-16T04:04:16;23.52;;;6.13;;
74922;SDS011;64715;44.760;37.678;2022-12-16T04:05:17;18.17;;;5.90;;
74922;SDS011;64715;44.760;37.678;2022-12-16T04:06:19;26.67;;;6.70;;
74922;SDS011;64715;44.760;37.678;2022-12-16T04:07:20;25.30;;;6.95;;
74922;SDS011;64715;44.760;37.678;2022-12-16T04:08:21;24.02;;;7.20;;
74922;SDS011;64715;44.760;37.678;2022-12-16T04:09:22;23.35;;;6.88;;
74922;SDS011;64715;44.760;37.678;2022-12-16T04:10:23;24.20;;;7.40;;
74922;SDS011;64715;44.760;37.678;2022-12-16T04:11:42;25.23;;;6.60;;
74922;SDS011;64715;44.760;37.678;2022-12-16T04:13:02;18.83;;;6.37;;
74922;SDS011;64715;44.760;37.678;2022-12-16T04:14:22;19.52;;;5.93;;
74922;SDS011;64715;44.760;37.678;2022-12-16T04:15:41;20.88;;;6.00;;
74922;SDS011;64715;44.760;37.678;2022-12-16T04:17:01;21.02;;;6.53;;
74922;SDS011;64715;44.760;37.678;2022-12-16T04:18:21;20.60;;;7.13;;
74922;SDS011;64715;44.760;37.678;2022-12-16T04:19:41;21.27;;;7.10;;
74922;SDS011;64715;44.760;37.678;2022-12-16T04:21:03;23.75;;;6.78;;
74922;SDS011;64715;44.760;37.678;2022-12-16T04:24:14;19.75;;;5.63;;
74922;SDS011;64715;44.760;37.678;2022-12-16T04:25:23;22.03;;;6.90;;
74922;SDS011;64715;44.760;37.678;2022-12-16T04:26:27;23.43;;;7.20;;
74922;SDS011;64715;44.760;37.678;2022-12-16T04:27:28;24.55;;;7.15;;
74922;SDS011;64715;44.760;37.678;2022-12-16T04:28:29;21.70;;;6.40;;
74922;SDS011;64715;44.760;37.678;2022-12-16T04:29:30;25.55;;;6.60;;
74922;SDS011;64715;44.760;37.678;2022-12-16T04:30:32;24.88;;;6.03;;
74922;SDS011;64715;44.760;37.678;2022-12-16T04:31:36;26.85;;;8.50;;
74922;SDS011;64715;44.760;37.678;2022-12-16T04:32:37;25.38;;;8.35;;
74922;SDS011;64715;44.760;37.678;2022-12-16T04:33:57;27.13;;;7.20;;
74922;SDS011;64715;44.760;37.678;2022-12-16T04:35:17;21.65;;;6.60;;
74922;SDS011;64715;44.760;37.678;2022-12-16T04:36:37;18.75;;;6.65;;
74922;SDS011;64715;44.760;37.678;2022-12-16T04:37:56;20.02;;;6.30;;
74922;SDS011;64715;44.760;37.678;2022-12-16T04:39:16;21.90;;;6.60;;
74922;SDS011;64715;44.760;37.678;2022-12-16T04:40:35;22.90;;;6.65;;
74922;SDS011;64715;44.760;37.678;2022-12-16T04:41:54;18.23;;;5.38;;
74922;SDS011;64715;44.760;37.678;2022-12-16T04:43:14;15.30;;;5.15;;
74922;SDS011;64715;44.760;37.678;2022-12-16T04:44:33;15.73;;;4.95;;
74922;SDS011;64715;44.760;37.678;2022-12-16T04:45:53;16.50;;;5.47;;
74922;SDS011;64715;44.760;37.678;2022-12-16T04:47:12;15.13;;;4.67;;
74922;SDS011;64715;44.760;37.678;2022-12-16T04:48:32;16.85;;;4.80;;
74922;SDS011;64715;44.760;37.678;2022-12-16T04:49:51;15.70;;;4.68;;
74922;SDS011;64715;44.760;37.678;2022-12-16T04:51:11;14.57;;;4.40;;
74922;SDS011;64715;44.760;37.678;2022-12-16T04:52:31;13.18;;;4.45;;
74922;SDS011;64715;44.760;37.678;2022-12-16T04:53:50;14.18;;;4.25;;
74922;SDS011;64715;44.760;37.678;2022-12-16T04:55:10;14.82;;;4.20;;
74922;SDS011;64715;44.760;37.678;2022-12-16T04:56:29;16.00;;;4.63;;
74922;SDS011;64715;44.760;37.678;2022-12-16T04:57:53;14.82;;;3.90;;
74922;SDS011;64715;44.760;37.678;2022-12-16T04:59:14;12.02;;;4.15;;
74922;SDS011;64715;44.760;37.678;2022-12-16T05:00:34;14.37;;;4.00;;
74922;SDS011;64715;44.760;37.678;2022-12-16T05:01:54;14.27;;;4.00;;
74922;SDS011;64715;44.760;37.678;2022-12-16T05:03:13;14.80;;;4.45;;
74922;SDS011;64715;44.760;37.678;2022-12-16T05:04:33;16.23;;;4.50;;
74922;SDS011;64715;44.760;37.678;2022-12-16T05:05:53;13.65;;;3.92;;
74922;SDS011;64715;44.760;37.678;2022-12-16T05:07:13;17.42;;;5.18;;
74922;SDS011;64715;44.760;37.678;2022-12-16T05:08:32;14.55;;;4.28;;
74922;SDS011;64715;44.760;37.678;2022-12-16T05:09:52;19.20;;;5.30;;
74922;SDS011;64715;44.760;37.678;2022-12-16T05:11:11;19.88;;;7.35;;
74922;SDS011;64715;44.760;37.678;2022-12-16T05:12:31;16.75;;;5.60;;
74922;SDS011;64715;44.760;37.678;2022-12-16T05:13:51;19.77;;;5.37;;
74922;SDS011;64715;44.760;37.678;2022-12-16T05:15:10;17.20;;;5.15;;
74922;SDS011;64715;44.760;37.678;2022-12-16T05:16:30;16.85;;;5.25;;
74922;SDS011;64715;44.760;37.678;2022-12-16T05:17:50;20.65;;;5.22;;
74922;SDS011;64715;44.760;37.678;2022-12-16T05:19:09;18.90;;;5.82;;
74922;SDS011;64715;44.760;37.678;2022-12-16T05:20:29;20.13;;;5.78;;
74922;SDS011;64715;44.760;37.678;2022-12-16T05:21:48;18.73;;;6.53;;
74922;SDS011;64715;44.760;37.678;2022-12-16T05:23:08;18.25;;;6.18;;
74922;SDS011;64715;44.760;37.678;2022-12-16T05:24:27;16.15;;;5.47;;
74922;SDS011;64715;44.760;37.678;2022-12-16T05:25:47;16.70;;;5.70;;
74922;SDS011;64715;44.760;37.678;2022-12-16T05:27:07;21.20;;;6.30;;
74922;SDS011;64715;44.760;37.678;2022-12-16T05:28:26;16.27;;;6.05;;
74922;SDS011;64715;44.760;37.678;2022-12-16T05:29:45;18.08;;;5.40;;
74922;SDS011;64715;44.760;37.678;2022-12-16T05:31:04;16.08;;;5.65;;
74922;SDS011;64715;44.760;37.678;2022-12-16T05:32:24;16.65;;;5.95;;
74922;SDS011;64715;44.760;37.678;2022-12-16T05:33:44;16.92;;;6.00;;
74922;SDS011;64715;44.760;37.678;2022-12-16T05:35:03;18.25;;;6.38;;
74922;SDS011;64715;44.760;37.678;2022-12-16T05:36:23;18.13;;;6.70;;
74922;SDS011;64715;44.760;37.678;2022-12-16T05:37:43;17.60;;;6.60;;
74922;SDS011;64715;44.760;37.678;2022-12-16T05:39:02;18.35;;;6.25;;
74922;SDS011;64715;44.760;37.678;2022-12-16T05:40:22;29.40;;;11.40;;
74922;SDS011;64715;44.760;37.678;2022-12-16T05:41:42;46.03;;;21.23;;
74922;SDS011;64715;44.760;37.678;2022-12-16T05:43:01;38.80;;;19.50;;
74922;SDS011;64715;44.760;37.678;2022-12-16T05:44:21;25.67;;;10.68;;
74922;SDS011;64715;44.760;37.678;2022-12-16T05:45:41;21.75;;;8.90;;
74922;SDS011;64715;44.760;37.678;2022-12-16T05:47:01;24.77;;;9.18;;
74922;SDS011;64715;44.760;37.678;2022-12-16T05:48:20;22.15;;;8.30;;
74922;SDS011;64715;44.760;37.678;2022-12-16T05:49:40;19.05;;;6.68;;
74922;SDS011;64715;44.760;37.678;2022-12-16T05:50:59;17.50;;;6.18;;
74922;SDS011;64715;44.760;37.678;2022-12-16T05:52:19;15.05;;;5.88;;
74922;SDS011;64715;44.760;37.678;2022-12-16T05:53:39;15.63;;;5.70;;
74922;SDS011;64715;44.760;37.678;2022-12-16T05:54:58;14.27;;;5.53;;
74922;SDS011;64715;44.760;37.678;2022-12-16T05:56:18;23.63;;;12.18;;
74922;SDS011;64715;44.760;37.678;2022-12-16T05:57:37;13.43;;;5.22;;
74922;SDS011;64715;44.760;37.678;2022-12-16T05:58:57;12.32;;;4.40;;
74922;SDS011;64715;44.760;37.678;2022-12-16T06:00:16;15.15;;;5.22;;
74922;SDS011;64715;44.760;37.678;2022-12-16T06:01:36;23.70;;;9.63;;
74922;SDS011;64715;44.760;37.678;2022-12-16T06:02:56;26.65;;;9.88;;
74922;SDS011;64715;44.760;37.678;2022-12-16T06:04:17;22.85;;;8.80;;
74922;SDS011;64715;44.760;37.678;2022-12-16T06:05:36;18.83;;;8.27;;
74922;SDS011;64715;44.760;37.678;2022-12-16T06:06:55;21.97;;;8.30;;
74922;SDS011;64715;44.760;37.678;2022-12-16T06:08:15;20.57;;;7.97;;
74922;SDS011;64715;44.760;37.678;2022-12-16T06:09:34;19.67;;;7.88;;
74922;SDS011;64715;44.760;37.678;2022-12-16T06:10:54;19.02;;;8.18;;
74922;SDS011;64715;44.760;37.678;2022-12-16T06:12:27;17.95;;;7.00;;
74922;SDS011;64715;44.760;37.678;2022-12-16T06:13:46;12.13;;;4.75;;
74922;SDS011;64715;44.760;37.678;2022-12-16T06:15:06;12.35;;;4.85;;
74922;SDS011;64715;44.760;37.678;2022-12-16T06:16:26;10.15;;;3.92;;
74922;SDS011;64715;44.760;37.678;2022-12-16T06:17:46;11.20;;;4.32;;
74922;SDS011;64715;44.760;37.678;2022-12-16T06:19:06;11.68;;;4.38;;
74922;SDS011;64715;44.760;37.678;2022-12-16T06:20:26;10.70;;;3.73;;
74922;SDS011;64715;44.760;37.678;2022-12-16T06:21:45;12.60;;;4.30;;
74922;SDS011;64715;44.760;37.678;2022-12-16T06:23:06;14.90;;;5.40;;
74922;SDS011;64715;44.760;37.678;2022-12-16T06:24:26;22.40;;;7.97;;
74922;SDS011;64715;44.760;37.678;2022-12-16T06:25:45;41.83;;;15.75;;
74922;SDS011;64715;44.760;37.678;2022-12-16T06:27:05;36.58;;;14.45;;
74922;SDS011;64715;44.760;37.678;2022-12-16T06:28:26;30.25;;;11.02;;
74922;SDS011;64715;44.760;37.678;2022-12-16T06:29:46;25.05;;;10.10;;
74922;SDS011;64715;44.760;37.678;2022-12-16T06:31:05;19.77;;;9.65;;
74922;SDS011;64715;44.760;37.678;2022-12-16T06:32:26;24.95;;;11.48;;
74922;SDS011;64715;44.760;37.678;2022-12-16T06:33:45;19.30;;;7.80;;
74922;SDS011;64715;44.760;37.678;2022-12-16T06:35:04;13.30;;;6.37;;
74922;SDS011;64715;44.760;37.678;2022-12-16T06:36:24;19.67;;;8.10;;
74922;SDS011;64715;44.760;37.678;2022-12-16T06:37:46;13.88;;;6.47;;
74922;SDS011;64715;44.760;37.678;2022-12-16T06:39:06;14.30;;;5.93;;
74922;SDS011;64715;44.760;37.678;2022-12-16T06:40:25;13.82;;;5.60;;
74922;SDS011;64715;44.760;37.678;2022-12-16T06:41:46;12.40;;;5.30;;
74922;SDS011;64715;44.760;37.678;2022-12-16T06:43:06;14.32;;;5.20;;
74922;SDS011;64715;44.760;37.678;2022-12-16T06:44:25;12.88;;;5.10;;
74922;SDS011;64715;44.760;37.678;2022-12-16T06:45:45;13.10;;;5.40;;
74922;SDS011;64715;44.760;37.678;2022-12-16T06:47:05;13.27;;;5.18;;
74922;SDS011;64715;44.760;37.678;2022-12-16T06:48:25;13.67;;;5.30;;
74922;SDS011;64715;44.760;37.678;2022-12-16T06:49:45;12.35;;;4.88;;
74922;SDS011;64715;44.760;37.678;2022-12-16T06:51:05;13.48;;;5.45;;
74922;SDS011;64715;44.760;37.678;2022-12-16T06:52:24;13.05;;;5.20;;
74922;SDS011;64715;44.760;37.678;2022-12-16T06:53:44;11.43;;;4.68;;
74922;SDS011;64715;44.760;37.678;2022-12-16T06:55:04;10.98;;;4.95;;
74922;SDS011;64715;44.760;37.678;2022-12-16T06:56:24;12.25;;;5.07;;
74922;SDS011;64715;44.760;37.678;2022-12-16T06:57:44;13.93;;;7.13;;
74922;SDS011;64715;44.760;37.678;2022-12-16T06:59:03;17.73;;;11.77;;
74922;SDS011;64715;44.760;37.678;2022-12-16T07:00:22;14.10;;;8.43;;
74922;SDS011;64715;44.760;37.678;2022-12-16T07:01:42;14.13;;;7.37;;
74922;SDS011;64715;44.760;37.678;2022-12-16T07:03:01;14.75;;;5.70;;
74922;SDS011;64715;44.760;37.678;2022-12-16T07:04:21;13.15;;;5.38;;
74922;SDS011;64715;44.760;37.678;2022-12-16T07:05:40;13.60;;;5.43;;
74922;SDS011;64715;44.760;37.678;2022-12-16T07:07:00;14.82;;;5.38;;
74922;SDS011;64715;44.760;37.678;2022-12-16T07:08:19;13.95;;;6.00;;
74922;SDS011;64715;44.760;37.678;2022-12-16T07:09:38;13.73;;;6.28;;
74922;SDS011;64715;44.760;37.678;2022-12-16T07:10:58;24.23;;;9.38;;
74922;SDS011;64715;44.760;37.678;2022-12-16T07:12:17;15.95;;;6.65;;
74922;SDS011;64715;44.760;37.678;2022-12-16T07:13:37;15.75;;;6.20;;
74922;SDS011;64715;44.760;37.678;2022-12-16T07:14:56;13.20;;;5.83;;
74922;SDS011;64715;44.760;37.678;2022-12-16T07:16:16;18.15;;;6.90;;
74922;SDS011;64715;44.760;37.678;2022-12-16T07:17:38;18.10;;;6.90;;
74922;SDS011;64715;44.760;37.678;2022-12-16T07:18:58;9.82;;;3.72;;
74922;SDS011;64715;44.760;37.678;2022-12-16T07:20:18;9.77;;;3.53;;
74922;SDS011;64715;44.760;37.678;2022-12-16T07:21:38;9.45;;;3.47;;